createdAt,value
2023-03-16T00:02:21.753Z,92.90
2023-03-16T00:04:48.286Z,93.46
2023-03-16T00:07:15.515Z,93.29
2023-03-16T00:09:42.681Z,93.69
2023-03-16T00:12:17.690Z,94.03
2023-03-16T00:14:48.806Z,93.66
2023-03-16T00:17:20.689Z,93.45
2023-03-16T00:19:55.100Z,93.24
2023-03-16T00:22:23.764Z,93.42
2023-03-16T00:24:50.203Z,93.69
2023-03-16T00:27:17.286Z,94.04
2023-03-16T00:29:55.574Z,94.21
2023-03-16T00:32:28.738Z,94.13
2023-03-16T00:34:55.752Z,93.59
2023-03-16T00:37:23.890Z,93.71
2023-03-16T00:39:51.650Z,93.85
2023-03-16T00:42:19.774Z,93.97
2023-03-16T00:44:46.608Z,93.72
2023-03-16T00:47:16.656Z,94.16
2023-03-16T00:49:44.156Z,93.94
2023-03-16T00:52:15.930Z,94.29
2023-03-16T00:54:44.335Z,94.15
2023-03-16T00:57:18.746Z,94.17
2023-03-16T00:59:46.308Z,94.14
2023-03-16T01:02:13.749Z,94.32
2023-03-16T01:04:41.332Z,94.34
2023-03-16T01:07:09.313Z,94.50
2023-03-16T01:09:37.091Z,94.68
2023-03-16T01:12:06.186Z,95.07
2023-03-16T01:14:34.941Z,94.93
2023-03-16T01:17:04.443Z,94.76
2023-03-16T01:19:34.109Z,95.21
2023-03-16T01:22:00.560Z,95.50
2023-03-16T01:24:27.042Z,95.31
2023-03-16T01:26:54.294Z,95.35
2023-03-16T01:29:21.264Z,95.24
2023-03-16T01:31:50.206Z,95.22
2023-03-16T01:34:18.657Z,95.40
2023-03-16T01:36:48.408Z,95.12
2023-03-16T01:39:16.997Z,95.58
2023-03-16T01:41:47.922Z,95.37
2023-03-16T01:44:18.639Z,95.18
2023-03-16T01:46:45.304Z,95.16
2023-03-16T01:49:16.659Z,95.51
2023-03-16T01:51:50.854Z,95.81
2023-03-16T01:54:31.217Z,95.74
2023-03-16T01:57:21.999Z,95.90
2023-03-16T02:00:00.379Z,95.50
2023-03-16T02:02:31.163Z,95.41
2023-03-16T02:05:14.359Z,95.92
2023-03-16T02:07:46.614Z,95.79
2023-03-16T02:10:15.900Z,95.80
2023-03-16T02:12:43.287Z,95.77
2023-03-16T02:15:11.373Z,96.03
2023-03-16T02:17:38.079Z,95.69
2023-03-16T02:20:27.999Z,95.65
2023-03-16T02:22:54.985Z,95.81
2023-03-16T02:25:39.726Z,95.87
2023-03-16T02:28:29.739Z,95.71
2023-03-16T02:30:57.707Z,95.96
2023-03-16T02:33:26.261Z,95.78
2023-03-16T02:35:52.996Z,96.06
2023-03-16T02:38:19.513Z,96.31
2023-03-16T02:41:01.600Z,95.99
2023-03-16T02:43:35.145Z,95.94
2023-03-16T02:46:15.731Z,96.01
2023-03-16T02:49:16.326Z,96.03
2023-03-16T02:51:45.798Z,95.75
2023-03-16T02:54:14.133Z,95.53
2023-03-16T02:56:41.950Z,95.19
2023-03-16T02:59:12.217Z,95.58
2023-03-16T03:01:39.228Z,95.69
2023-03-16T03:04:06.293Z,96.00
2023-03-16T03:06:33.402Z,95.58
2023-03-16T03:09:02.046Z,95.50
2023-03-16T03:11:29.221Z,95.90
2023-03-16T03:13:56.104Z,95.60
2023-03-16T03:16:25.519Z,95.73
2023-03-16T03:18:53.973Z,95.53
2023-03-16T03:21:20.880Z,95.38
2023-03-16T03:23:47.615Z,95.52
2023-03-16T03:26:15.427Z,95.90
2023-03-16T03:28:43.816Z,95.61
2023-03-16T03:31:21.146Z,95.78
2023-03-16T03:33:47.925Z,95.73
2023-03-16T03:36:14.847Z,95.27
2023-03-16T03:38:43.513Z,95.55
2023-03-16T03:41:10.196Z,95.81
2023-03-16T03:43:38.611Z,95.80
2023-03-16T03:46:07.789Z,95.63
2023-03-16T03:48:34.589Z,95.46
2023-03-16T03:51:01.441Z,95.48
2023-03-16T03:53:36.864Z,95.45
2023-03-16T03:56:14.043Z,95.60
2023-03-16T03:58:41.055Z,95.52
2023-03-16T04:01:07.771Z,95.47
2023-03-16T04:03:34.431Z,95.41
2023-03-16T04:06:01.159Z,95.01
2023-03-16T04:08:29.157Z,95.35
2023-03-16T04:10:55.838Z,95.25
2023-03-16T04:13:22.754Z,94.98
2023-03-16T04:15:49.691Z,95.07
2023-03-16T04:18:19.653Z,94.84
2023-03-16T04:20:46.307Z,94.90
2023-03-16T04:23:17.056Z,94.96
2023-03-16T04:25:46.488Z,94.84
2023-03-16T04:28:17.962Z,94.61
2023-03-16T04:30:47.779Z,94.55
2023-03-16T04:33:18.874Z,94.62
2023-03-16T04:35:46.220Z,94.50
2023-03-16T04:38:14.830Z,94.60
2023-03-16T04:40:51.227Z,94.35
2023-03-16T04:43:22.960Z,94.13
2023-03-16T04:45:51.987Z,94.80
2023-03-16T04:48:19.451Z,94.17
2023-03-16T04:50:47.765Z,94.13
2023-03-16T04:53:15.772Z,94.08
2023-03-16T04:55:46.032Z,93.83
2023-03-16T04:58:16.229Z,93.78
2023-03-16T05:00:43.041Z,93.81
2023-03-16T05:03:18.741Z,94.14
2023-03-16T05:05:47.186Z,94.01
2023-03-16T05:08:15.973Z,93.89
2023-03-16T05:10:46.547Z,93.47
2023-03-16T05:13:13.032Z,93.83
2023-03-16T05:15:39.793Z,93.60
2023-03-16T05:18:21.672Z,93.59
2023-03-16T05:20:53.505Z,93.36
2023-03-16T05:23:20.655Z,93.16
2023-03-16T05:25:52.208Z,92.77
2023-03-16T05:28:21.430Z,92.72
2023-03-16T05:30:54.337Z,93.13
2023-03-16T05:33:25.589Z,92.46
2023-03-16T05:35:58.298Z,92.78
2023-03-16T05:38:27.540Z,92.28
2023-03-16T05:40:55.332Z,92.17
2023-03-16T05:43:34.355Z,92.22
2023-03-16T05:46:00.892Z,91.62
2023-03-16T05:48:27.497Z,91.25
2023-03-16T05:50:57.129Z,91.12
2023-03-16T05:53:28.995Z,90.66
2023-03-16T05:56:01.248Z,90.65
2023-03-16T05:58:28.306Z,90.08
2023-03-16T06:00:55.314Z,90.12
2023-03-16T06:03:26.275Z,89.71
2023-03-16T06:05:53.938Z,89.45
2023-03-16T06:08:28.253Z,89.55
2023-03-16T06:11:00.381Z,89.59
2023-03-16T06:13:26.866Z,89.24
2023-03-16T06:15:54.024Z,89.00
2023-03-16T06:18:22.123Z,88.81
2023-03-16T06:20:48.977Z,88.42
2023-03-16T06:23:16.492Z,88.49
2023-03-16T06:25:43.848Z,88.61
2023-03-16T06:28:11.101Z,87.52
2023-03-16T06:30:38.233Z,87.12
2023-03-16T06:33:04.868Z,86.24
2023-03-16T06:35:31.600Z,86.18
2023-03-16T06:38:10.155Z,85.19
2023-03-16T06:40:56.934Z,85.03
2023-03-16T06:43:23.880Z,84.58
2023-03-16T06:45:50.875Z,83.78
2023-03-16T06:48:17.544Z,83.16
2023-03-16T06:50:46.999Z,83.21
2023-03-16T06:53:18.619Z,82.71
2023-03-16T06:55:46.072Z,78.82
2023-03-16T06:58:12.537Z,78.19
2023-03-16T07:00:39.308Z,77.84
2023-03-16T07:03:06.963Z,76.51
2023-03-16T07:05:38.526Z,76.88
2023-03-16T07:08:08.129Z,75.93
2023-03-16T07:10:34.958Z,75.07
2023-03-16T07:13:01.474Z,74.61
2023-03-16T07:15:29.270Z,74.56
2023-03-16T07:17:57.409Z,73.60
2023-03-16T07:20:28.809Z,73.94
2023-03-16T07:22:55.502Z,73.47
2023-03-16T07:25:22.491Z,73.93
2023-03-16T07:27:53.408Z,74.00
2023-03-16T07:30:26.171Z,73.24
2023-03-16T07:32:53.052Z,73.32
2023-03-16T07:35:22.409Z,73.33
2023-03-16T07:37:49.493Z,73.03
2023-03-16T07:40:16.510Z,72.95
2023-03-16T07:42:44.122Z,73.10
2023-03-16T07:45:15.357Z,72.77
2023-03-16T07:47:42.963Z,73.19
2023-03-16T07:50:23.228Z,72.73
2023-03-16T07:52:49.934Z,71.45
2023-03-16T07:55:17.152Z,71.19
2023-03-16T07:57:47.957Z,70.89
2023-03-16T08:00:20.496Z,70.85
2023-03-16T08:02:47.204Z,71.09
2023-03-16T08:05:15.411Z,70.77
2023-03-16T08:07:46.675Z,70.96
2023-03-16T08:10:18.760Z,71.29
2023-03-16T08:12:54.121Z,71.06
2023-03-16T08:15:21.616Z,70.50
2023-03-16T08:17:49.679Z,70.27
2023-03-16T08:20:22.413Z,69.98
2023-03-16T08:22:49.624Z,70.35
2023-03-16T08:25:19.855Z,70.07
2023-03-16T08:27:58.135Z,69.07
2023-03-16T08:30:25.514Z,68.49
2023-03-16T08:33:08.147Z,67.72
2023-03-16T08:35:35.952Z,67.74
2023-03-16T08:38:02.701Z,66.53
2023-03-16T08:40:29.705Z,66.05
2023-03-16T08:42:57.914Z,65.93
2023-03-16T08:45:25.146Z,64.70
2023-03-16T08:47:51.996Z,63.75
2023-03-16T08:50:19.952Z,64.09
2023-03-16T08:52:48.956Z,63.51
2023-03-16T08:55:16.258Z,63.14
2023-03-16T08:57:45.133Z,62.41
2023-03-16T09:00:13.106Z,61.31
2023-03-16T09:02:40.880Z,60.51
2023-03-16T09:05:12.701Z,60.06
2023-03-16T09:07:40.059Z,60.13
2023-03-16T09:10:07.698Z,60.07
2023-03-16T09:12:37.999Z,60.20
2023-03-16T09:15:05.685Z,59.50
2023-03-16T09:17:32.264Z,59.40
2023-03-16T09:20:05.517Z,59.14
2023-03-16T09:22:42.099Z,58.89
2023-03-16T09:25:10.479Z,57.12
2023-03-16T09:27:37.445Z,56.96
2023-03-16T09:30:08.529Z,56.18
2023-03-16T09:32:37.355Z,55.07
2023-03-16T09:35:07.262Z,54.36
2023-03-16T09:37:44.757Z,55.05
2023-03-16T09:40:26.606Z,54.90
2023-03-16T09:43:22.981Z,55.29
2023-03-16T09:46:02.893Z,55.42
2023-03-16T09:48:33.836Z,55.82
2023-03-16T09:51:03.559Z,55.92
2023-03-16T09:53:39.025Z,55.05
2023-03-16T09:56:22.668Z,55.25
2023-03-16T09:58:49.248Z,54.77
2023-03-16T10:01:35.690Z,55.31
2023-03-16T10:04:09.626Z,55.46
2023-03-16T10:06:48.615Z,54.73
2023-03-16T10:09:33.106Z,53.94
2023-03-16T10:12:04.071Z,53.34
2023-03-16T10:14:40.988Z,52.80
2023-03-16T10:17:17.014Z,52.62
2023-03-16T10:20:04.920Z,52.62
2023-03-16T10:22:39.269Z,53.02
2023-03-16T10:25:34.290Z,52.76
2023-03-16T10:28:00.890Z,51.77
2023-03-16T10:30:29.250Z,51.72
2023-03-16T10:33:00.548Z,50.78
2023-03-16T10:35:49.797Z,49.91
2023-03-16T10:38:30.612Z,50.23
2023-03-16T10:41:00.771Z,50.24
2023-03-16T10:43:29.637Z,50.08
2023-03-16T10:46:02.189Z,50.21
2023-03-16T10:48:34.091Z,50.03
2023-03-16T10:51:07.889Z,49.60
2023-03-16T10:53:39.022Z,48.79
2023-03-16T10:56:14.752Z,47.89
2023-03-16T10:58:43.421Z,48.25
2023-03-16T11:01:13.613Z,48.27
2023-03-16T11:03:41.615Z,47.52
2023-03-16T11:06:20.461Z,46.79
2023-03-16T11:08:47.742Z,46.98
2023-03-16T11:11:18.594Z,46.41
2023-03-16T11:13:48.952Z,46.91
2023-03-16T11:16:30.738Z,46.44
2023-03-16T11:19:11.118Z,45.34
2023-03-16T11:21:58.884Z,45.71
2023-03-16T11:24:37.267Z,45.59
2023-03-16T11:27:12.721Z,45.91
2023-03-16T11:29:52.717Z,44.75
2023-03-16T11:32:25.555Z,45.52
2023-03-16T11:34:53.439Z,44.31
2023-03-16T11:37:38.541Z,43.49
2023-03-16T11:40:47.497Z,43.51
2023-03-16T11:43:38.110Z,44.20
2023-03-16T11:46:10.745Z,43.04
2023-03-16T11:48:42.798Z,43.21
2023-03-16T11:51:29.911Z,42.65
2023-03-16T11:54:14.353Z,41.59
2023-03-16T11:56:50.594Z,42.54
2023-03-16T11:59:28.755Z,40.78
2023-03-16T12:02:10.761Z,41.61
2023-03-16T12:04:46.547Z,42.61
2023-03-16T12:07:20.412Z,42.27
2023-03-16T12:09:56.052Z,42.20
2023-03-16T12:12:45.424Z,41.79
2023-03-16T12:15:27.865Z,41.95
2023-03-16T12:17:58.500Z,42.46
2023-03-16T12:20:31.620Z,41.98
2023-03-16T12:23:06.050Z,41.84
2023-03-16T12:25:38.315Z,40.30
2023-03-16T12:28:10.554Z,40.93
2023-03-16T12:30:58.164Z,40.72
2023-03-16T12:33:45.714Z,41.77
2023-03-16T12:36:50.000Z,40.83
2023-03-16T12:39:38.150Z,40.89
2023-03-16T12:42:30.992Z,40.29
2023-03-16T12:45:03.194Z,39.81
2023-03-16T12:47:42.865Z,39.76
2023-03-16T12:50:15.900Z,39.42
2023-03-16T12:52:47.794Z,38.83
2023-03-16T12:55:18.779Z,39.94
2023-03-16T12:57:48.779Z,39.32
2023-03-16T13:00:16.489Z,39.29
2023-03-16T13:02:50.633Z,39.74
2023-03-16T13:05:27.534Z,38.90
2023-03-16T13:08:08.022Z,38.81
2023-03-16T13:10:34.675Z,39.43
2023-03-16T13:13:18.273Z,39.48
2023-03-16T13:15:47.496Z,39.31
2023-03-16T13:18:17.013Z,38.97
2023-03-16T13:21:14.399Z,39.10
2023-03-16T13:23:52.127Z,37.99
2023-03-16T13:26:31.388Z,38.51
2023-03-16T13:28:59.114Z,38.27
2023-03-16T13:31:37.688Z,38.86
2023-03-16T13:34:07.816Z,38.54
2023-03-16T13:36:35.185Z,38.73
2023-03-16T13:39:27.208Z,37.94
2023-03-16T13:42:03.661Z,38.46
2023-03-16T13:44:32.105Z,38.63
2023-03-16T13:47:05.087Z,38.32
2023-03-16T13:49:31.556Z,38.91
2023-03-16T13:51:58.134Z,38.02
2023-03-16T13:54:26.595Z,38.48
2023-03-16T13:56:56.378Z,38.18
2023-03-16T13:59:22.953Z,37.68
2023-03-16T14:01:57.917Z,37.38
2023-03-16T14:04:28.757Z,37.80
2023-03-16T14:07:01.903Z,38.27
2023-03-16T14:09:31.713Z,38.45
2023-03-16T14:11:58.283Z,38.89
2023-03-16T14:14:32.893Z,38.81
2023-03-16T14:17:08.332Z,38.29
2023-03-16T14:19:42.478Z,37.95
2023-03-16T14:22:23.745Z,38.73
2023-03-16T14:24:59.023Z,38.98
2023-03-16T14:27:41.901Z,38.89
2023-03-16T14:30:18.317Z,38.59
2023-03-16T14:33:30.181Z,38.71
2023-03-16T14:35:59.596Z,38.74
2023-03-16T14:38:28.833Z,38.55
2023-03-16T14:40:57.643Z,37.73
2023-03-16T14:43:30.712Z,38.91
2023-03-16T14:45:57.712Z,39.17
2023-03-16T14:48:24.687Z,39.24
2023-03-16T14:50:57.566Z,39.72
2023-03-16T14:53:28.510Z,40.43
2023-03-16T14:55:59.376Z,40.03
2023-03-16T14:58:26.164Z,40.29
2023-03-16T15:00:54.909Z,40.15
2023-03-16T15:03:29.349Z,40.37
2023-03-16T15:05:56.057Z,40.71
2023-03-16T15:08:27.142Z,41.05
2023-03-16T15:10:55.752Z,41.30
2023-03-16T15:13:52.413Z,41.24
2023-03-16T15:16:21.779Z,41.52
2023-03-16T15:18:49.001Z,41.52
2023-03-16T15:21:23.334Z,41.64
2023-03-16T15:23:50.020Z,41.13
2023-03-16T15:26:24.563Z,41.80
2023-03-16T15:28:51.602Z,42.10
2023-03-16T15:31:18.221Z,42.17
2023-03-16T15:33:45.766Z,41.81
2023-03-16T15:36:18.893Z,42.35
2023-03-16T15:38:54.357Z,42.94
2023-03-16T15:41:21.376Z,43.18
2023-03-16T15:43:47.872Z,43.73
2023-03-16T15:46:14.864Z,43.70
2023-03-16T15:48:41.514Z,43.74
2023-03-16T15:51:22.091Z,44.49
2023-03-16T15:53:54.772Z,44.70
2023-03-16T15:56:29.130Z,44.27
2023-03-16T15:59:00.420Z,44.75
2023-03-16T16:01:31.991Z,45.03
2023-03-16T16:03:59.142Z,45.15
2023-03-16T16:06:27.421Z,45.76
2023-03-16T16:08:54.158Z,45.79
2023-03-16T16:11:26.413Z,46.15
2023-03-16T16:13:55.849Z,46.31
2023-03-16T16:16:26.101Z,47.13
2023-03-16T16:18:53.715Z,46.46
2023-03-16T16:21:24.859Z,46.98
2023-03-16T16:23:52.777Z,47.15
2023-03-16T16:26:47.773Z,46.97
2023-03-16T16:29:22.584Z,46.44
2023-03-16T16:31:49.452Z,46.73
2023-03-16T16:34:21.146Z,47.10
2023-03-16T16:36:48.893Z,46.75
2023-03-16T16:39:17.133Z,46.26
2023-03-16T16:41:44.689Z,46.56
2023-03-16T16:44:21.607Z,46.54
2023-03-16T16:46:49.483Z,46.88
2023-03-16T16:49:30.943Z,46.78
2023-03-16T16:51:58.725Z,46.98
2023-03-16T16:54:28.209Z,47.11
2023-03-16T16:56:56.425Z,47.63
2023-03-16T16:59:26.625Z,48.21
2023-03-16T17:01:59.156Z,48.21
2023-03-16T17:04:27.795Z,48.67
2023-03-16T17:06:58.675Z,48.83
2023-03-16T17:09:27.146Z,48.98
2023-03-16T17:11:56.151Z,49.65
2023-03-16T17:14:23.920Z,49.37
2023-03-16T17:16:51.718Z,49.17
2023-03-16T17:19:19.819Z,49.58
2023-03-16T17:21:59.634Z,49.57
2023-03-16T17:24:27.035Z,49.78
2023-03-16T17:26:57.046Z,49.81
2023-03-16T17:29:33.857Z,49.79
2023-03-16T17:32:08.104Z,50.21
2023-03-16T17:34:35.064Z,49.87
2023-03-16T17:37:02.242Z,49.75
2023-03-16T17:39:32.114Z,49.47
2023-03-16T17:42:03.511Z,50.02
2023-03-16T17:44:38.799Z,50.08
2023-03-16T17:47:30.504Z,49.78
2023-03-16T17:49:57.257Z,49.66
2023-03-16T17:52:26.035Z,49.66
2023-03-16T17:54:53.776Z,49.27
2023-03-16T17:57:31.940Z,49.46
2023-03-16T18:00:00.352Z,48.80
2023-03-16T18:02:41.142Z,49.38
2023-03-16T18:05:17.665Z,49.23
2023-03-16T18:07:44.173Z,49.13
2023-03-16T18:10:15.899Z,49.21
2023-03-16T18:12:43.493Z,49.47
2023-03-16T18:15:21.949Z,48.94
2023-03-16T18:17:49.977Z,49.07
2023-03-16T18:20:32.829Z,48.95
2023-03-16T18:23:01.785Z,49.09
2023-03-16T18:25:30.366Z,48.87
2023-03-16T18:27:57.623Z,49.15
2023-03-16T18:30:28.515Z,49.12
2023-03-16T18:32:55.731Z,49.08
2023-03-16T18:35:22.738Z,49.23
2023-03-16T18:37:49.229Z,49.16
2023-03-16T18:40:18.018Z,49.20
2023-03-16T18:42:44.852Z,49.59
2023-03-16T18:45:13.273Z,49.55
2023-03-16T18:47:44.007Z,49.88
2023-03-16T18:50:23.477Z,49.31
2023-03-16T18:52:51.635Z,48.78
2023-03-16T18:55:23.759Z,49.04
2023-03-16T18:57:52.773Z,49.49
2023-03-16T19:00:29.677Z,49.00
2023-03-16T19:03:03.382Z,49.28
2023-03-16T19:05:36.281Z,48.90
2023-03-16T19:08:05.049Z,48.91
2023-03-16T19:10:36.517Z,48.94
2023-03-16T19:13:03.448Z,48.92
2023-03-16T19:15:34.518Z,48.98
2023-03-16T19:18:01.152Z,49.17
2023-03-16T19:20:31.436Z,48.74
2023-03-16T19:23:08.590Z,48.70
2023-03-16T19:25:39.742Z,49.13
2023-03-16T19:28:12.152Z,49.21
2023-03-16T19:30:39.019Z,49.25
2023-03-16T19:33:20.851Z,49.46
2023-03-16T19:35:51.781Z,49.29
2023-03-16T19:38:21.865Z,49.58
2023-03-16T19:40:54.688Z,49.91
2023-03-16T19:43:21.921Z,50.09
2023-03-16T19:45:49.862Z,50.15
2023-03-16T19:48:21.056Z,50.21
2023-03-16T19:50:49.504Z,50.58
2023-03-16T19:53:18.455Z,51.10
2023-03-16T19:55:50.650Z,51.37
2023-03-16T19:58:28.747Z,50.84
2023-03-16T20:00:56.555Z,51.63
2023-03-16T20:03:23.065Z,51.64
2023-03-16T20:05:50.894Z,51.71
2023-03-16T20:08:24.117Z,51.61
2023-03-16T20:10:51.536Z,52.11
2023-03-16T20:13:18.521Z,51.85
2023-03-16T20:15:45.250Z,51.95
2023-03-16T20:18:14.461Z,51.96
2023-03-16T20:20:42.203Z,51.92
2023-03-16T20:23:25.678Z,52.12
2023-03-16T20:25:56.401Z,52.42
2023-03-16T20:28:31.368Z,53.04
2023-03-16T20:30:59.226Z,53.20
2023-03-16T20:33:26.801Z,53.05
2023-03-16T20:35:56.133Z,53.22
2023-03-16T20:38:23.353Z,53.05
2023-03-16T20:40:52.449Z,53.00
2023-03-16T20:43:31.378Z,53.06
2023-03-16T20:46:00.226Z,52.84
2023-03-16T20:48:27.742Z,53.06
2023-03-16T20:50:57.124Z,52.93
2023-03-16T20:53:23.913Z,52.97
2023-03-16T20:55:52.319Z,53.14
2023-03-16T20:58:24.550Z,53.36
2023-03-16T21:00:54.463Z,53.10
2023-03-16T21:03:24.024Z,53.21
2023-03-16T21:05:52.345Z,53.16
2023-03-16T21:08:19.505Z,53.55
2023-03-16T21:10:48.750Z,53.40
2023-03-16T21:13:36.395Z,53.70
2023-03-16T21:16:04.175Z,53.31
2023-03-16T21:18:30.880Z,53.54
2023-03-16T21:20:58.863Z,53.40
2023-03-16T21:23:25.510Z,53.86
2023-03-16T21:25:58.096Z,53.66
2023-03-16T21:28:26.542Z,53.54
2023-03-16T21:30:56.190Z,53.87
2023-03-16T21:33:30.633Z,54.45
2023-03-16T21:35:58.837Z,54.04
2023-03-16T21:38:28.074Z,54.12
2023-03-16T21:40:55.582Z,54.46
2023-03-16T21:43:22.074Z,54.30
2023-03-16T21:45:51.679Z,54.61
2023-03-16T21:48:28.013Z,54.34
2023-03-16T21:50:54.849Z,54.54
2023-03-16T21:53:24.351Z,54.95
2023-03-16T21:55:52.004Z,55.39
2023-03-16T21:58:19.336Z,55.90
2023-03-16T22:00:47.174Z,55.39
2023-03-16T22:03:24.914Z,55.53
2023-03-16T22:05:52.230Z,55.52
2023-03-16T22:08:22.434Z,55.80
2023-03-16T22:10:49.780Z,56.18
2023-03-16T22:13:18.896Z,56.27
2023-03-16T22:15:46.511Z,56.10
2023-03-16T22:18:24.765Z,56.48
2023-03-16T22:20:51.736Z,57.11
2023-03-16T22:23:35.028Z,56.67
2023-03-16T22:26:06.099Z,56.91
2023-03-16T22:28:32.963Z,56.97
2023-03-16T22:31:03.175Z,57.16
2023-03-16T22:33:32.966Z,57.47
2023-03-16T22:36:14.301Z,57.91
2023-03-16T22:38:42.012Z,57.62
2023-03-16T22:41:12.894Z,57.51
2023-03-16T22:43:42.425Z,57.51
2023-03-16T22:46:18.285Z,57.91
2023-03-16T22:48:44.835Z,58.10
2023-03-16T22:51:23.203Z,58.10
2023-03-16T22:53:50.927Z,58.39
2023-03-16T22:56:18.903Z,58.70
2023-03-16T22:58:50.644Z,58.36
2023-03-16T23:01:20.325Z,58.18
2023-03-16T23:03:49.539Z,58.61
2023-03-16T23:06:22.791Z,59.12
2023-03-16T23:08:50.928Z,58.91
2023-03-16T23:11:28.466Z,58.96
2023-03-16T23:13:55.758Z,59.31
2023-03-16T23:16:29.204Z,59.33
2023-03-16T23:18:56.704Z,59.68
2023-03-16T23:21:25.643Z,59.64
2023-03-16T23:24:03.071Z,59.46
2023-03-16T23:26:30.552Z,59.52
2023-03-16T23:28:57.178Z,59.01
2023-03-16T23:31:25.837Z,59.56
2023-03-16T23:33:52.322Z,59.94
2023-03-16T23:36:24.430Z,59.78
2023-03-16T23:38:51.511Z,60.00
2023-03-16T23:41:22.023Z,59.47
2023-03-16T23:43:49.218Z,59.48
2023-03-16T23:46:19.366Z,59.73
2023-03-16T23:48:47.370Z,59.65
2023-03-16T23:51:27.327Z,59.47
2023-03-16T23:53:54.398Z,59.51
2023-03-16T23:56:22.084Z,59.69
2023-03-16T23:58:48.585Z,59.71
